Bodrum, Turkey

10:39 AM EEST on September 01, 2014 (GMT +0300)
Birger's automatic weatherstation | Change Station
CLOSE
Current Station
Personal Weather Station
Location: Bodrum, Mugla - TURKEY
Elevation: 364 ft
Nearby Weather Stations

Elev 364 ft 37.05 °N, 27.41 °E | Updated 25 seconds ago

Clear
Clear
94.3 °F
Feels Like 102 °F
N
0.8
Wind Variable Wind from West
Gusts 3.8 mph

Today
High -- | Low -- °F
--% Chance of Precip.
Yesterday
High -- | Low -- °F
Precip. -- in
6:40 AM 7:39 PM
Waxing Crescent, 38% visible
Pressure 29.74 in
Visibility -9999.0 miles
Clouds
Heat Index 102 °F
Dew Point 71 °F
Humidity 47%
Rainfall 0.00 in
Snow Depth Not available.
UV Not available.
Pollen Not available.
Air Quality Not available.
Flu Activity Not available.
METAR LTFE 010720Z VRB04KT CAVOK 27/21 Q1007 BECMG 26015KT RMK RWY10 VRB05KT

More Conditions Fewer Conditions

Pressure 29.74 in
Visibility -9999.0 miles
Clouds
Heat Index 102 °F
Dew Point 71 °F
Humidity 47%
Rainfall 0.00 in
Snow Depth Not available.
UV Not available.
Pollen Not available.
Air Quality Not available.
Flu Activity Not available.
METAR LTFE 010720Z VRB04KT CAVOK 27/21 Q1007 BECMG 26015KT RMK RWY10 VRB05KT

More Conditions Fewer Conditions

10-Day Weather Forecast

Almanac

Astronomy

Sep. 01, 2014 Rise Set
Actual Time 6:40 AM EEST 7:39 PM EEST
Civil Twilight 6:14 AM EEST 8:05 PM EEST
Nautical Twilight 5:42 AM EEST 8:37 PM EEST
Astronomical Twilight 5:09 AM EEST 9:09 PM EEST
Moon 12:58 PM EEST 11:34 PM EEST
Length of Visible Light 13h 51m
Length of Day
12h 58m
Tomorrow will be 2m 17s shorter.
Waxing Crescent, 38% of the Moon is Illuminated
Today
Waxing Crescent
Sep 2
First Quarter
Sep 8
Full
Sep 15
Last Quarter
Sep 24
New

Yesterday's Extremes

Country Highs Country Lows

Community

WunderPhotos

Upload Photos

1,749,154 photos uploaded!

Nearby

Snow Depth

Not available.

Earthquake Activity

City Distance Mag. Time & Date
No recent earthquake activity has been reported nearby.
Minimum magnitude displayed is 2.5.

Coastal Water Temperatures

Place Temperature
No Stations Reporting

Nearby Weather Stations